Sally Fox — WDH7915 — position and weather

sailwx.info

Track history (hours):
 
Tides and Currents Weather Stations Pressure Air Temp Water Temp Dewpoint Dewpoint Depression Visibility Wind Speed Wind Dir Waves Ship Positions

Sally Fox

Owner: King County Marine Division, Seattle, WA. More information available from US FCC via Universal Licensing System and Coast Guard Vessel Documentation Center.

Last reported at 2018-Jun-19 19:59 UTC. Time now 2018-Jun-19 20:11 UTC.
Position N 47°36' W 122°20'.

Length 31 m; draft 2 m.

Type: Passenger vessel. MMSI: 338790000.

Date/timePositionNaut miles runAvg speedWind from/ knotsBaromVisibWave heightAir tempDewpointWater temp
2018-Jun-19 19:59N 47°36' W 122°20'0 0.0
2018-Jun-19 19:26N 47°36' W 122°20'0 0.0
2018-Jun-19 18:50N 47°36' W 122°20'0 0.0
2018-Jun-19 18:29N 47°36' W 122°20'0 0.0
2018-Jun-19 17:59N 47°36' W 122°20'0 0.0
2018-Jun-19 17:29N 47°36' W 122°20'0 0.0
2018-Jun-19 16:59N 47°36' W 122°20'0 0.0
2018-Jun-19 16:26N 47°36' W 122°20'0 0.0
2018-Jun-19 16:00N 47°36' W 122°20'3 5.4
2018-Jun-19 15:30N 47°36' W 122°24'4 7.2
2018-Jun-19 15:00N 47°33' W 122°27'510.4
2018-Jun-19 14:31N 47°37' W 122°22'714.6
2018-Jun-19 14:00N 47°31' W 122°28'714.9
2018-Jun-19 13:30N 47°36' W 122°21'714.9
2018-Jun-19 13:00N 47°31' W 122°28'815.0
2018-Jun-19 12:30N 47°36' W 122°20'0 0.4
2018-Jun-19 12:00N 47°36' W 122°20'0 0.0
2018-Jun-19 11:30N 47°36' W 122°20'0 0.0
2018-Jun-19 11:00N 47°36' W 122°20'0 0.0
2018-Jun-19 10:30N 47°36' W 122°20'0 0.0
2018-Jun-19 10:00N 47°36' W 122°20'0 0.0
2018-Jun-19 09:30N 47°36' W 122°20'0 0.0
2018-Jun-19 09:00N 47°36' W 122°20'0 0.0
2018-Jun-19 08:30N 47°36' W 122°20'0 0.0
2018-Jun-19 08:00N 47°36' W 122°20'0 0.0
2018-Jun-19 07:30N 47°36' W 122°20'0 0.0
2018-Jun-19 07:00N 47°36' W 122°20'0 0.0
2018-Jun-19 06:27N 47°36' W 122°20'0 0.0
2018-Jun-19 06:00N 47°36' W 122°20'0 0.0
2018-Jun-19 05:18N 47°36' W 122°20'0 0.0
2018-Jun-19 02:33N 47°36' W 122°20'0 2.5
2018-Jun-19 02:30N 47°36' W 122°20'714.7
2018-Jun-19 02:00N 47°31' W 122°28'714.9
2018-Jun-19 01:31N 47°36' W 122°20'714.9
2018-Jun-19 01:01N 47°31' W 122°28'713.0
2018-Jun-19 00:26N 47°36' W 122°20'717.3
2018-Jun-19 00:01N 47°31' W 122°28'711.4
2018-Jun-18 23:22N 47°36' W 122°20'0 0.6
2018-Jun-18 23:00N 47°36' W 122°20'0 0.0
2018-Jun-18 22:26N 47°36' W 122°20'0 0.0
2018-Jun-18 21:56N 47°36' W 122°20'0 0.0
2018-Jun-18 21:26N 47°36' W 122°20'0 0.0
2018-Jun-18 20:56N 47°36' W 122°20'0 0.0
2018-Jun-18 20:02N 47°36' W 122°20'0 0.0
2018-Jun-18 19:53N 47°36' W 122°20'0 0.0
2018-Jun-18 19:26N 47°36' W 122°20'0 0.0
2018-Jun-18 17:41N 47°36' W 122°20'0 0.0
2018-Jun-18 17:26N 47°36' W 122°20'0 0.0
2018-Jun-18 16:48N 47°36' W 122°20'1 3.4
2018-Jun-18 16:30N 47°35' W 122°21'0 0.6
2018-Jun-18 16:00N 47°36' W 122°21'2 5.0
2018-Jun-18 15:30N 47°35' W 122°25'510.2
2018-Jun-18 15:01N 47°31' W 122°28'714.6
2018-Jun-18 14:30N 47°37' W 122°22'714.9
2018-Jun-18 14:01N 47°31' W 122°28'714.9
2018-Jun-18 13:30N 47°36' W 122°20'715.0
2018-Jun-18 13:01N 47°31' W 122°28'814.9
2018-Jun-18 12:30N 47°36' W 122°20'0 0.4
2018-Jun-18 12:01N 47°36' W 122°20'0 0.0
2018-Jun-18 11:23N 47°36' W 122°20'0 0.0
2018-Jun-18 10:59N 47°36' W 122°20'0 0.0
2018-Jun-18 10:29N 47°36' W 122°20'0 0.0
2018-Jun-18 09:59N 47°36' W 122°20'0 0.0
2018-Jun-18 09:29N 47°36' W 122°20'0 0.0
2018-Jun-18 08:59N 47°36' W 122°20'0 0.0
2018-Jun-18 08:29N 47°36' W 122°20'0 0.0
2018-Jun-18 07:59N 47°36' W 122°20'0 0.0
2018-Jun-18 07:29N 47°36' W 122°20'0 0.0
2018-Jun-18 06:59N 47°36' W 122°20'0 0.0
2018-Jun-18 06:29N 47°36' W 122°20'0 0.0
2018-Jun-18 05:59N 47°36' W 122°20'0 0.0
2018-Jun-18 05:29N 47°36' W 122°20'0 0.0
2018-Jun-18 04:53N 47°36' W 122°20'0 0.0
2018-Jun-18 04:23N 47°36' W 122°20'0 0.0
2018-Jun-18 03:59N 47°36' W 122°20'0 0.0
2018-Jun-18 03:29N 47°36' W 122°20'0 0.0
2018-Jun-18 02:59N 47°36' W 122°20'0 0.0
2018-Jun-18 00:20N 47°36' W 122°20'0 0.0
2018-Jun-17 23:50N 47°36' W 122°20'0 0.0
2018-Jun-17 23:11N 47°36' W 122°20'0 0.0
2018-Jun-17 22:59N 47°36' W 122°20'0 0.0
2018-Jun-17 22:11N 47°36' W 122°20'0 0.0
2018-Jun-17 21:59N 47°36' W 122°20'0 0.0
2018-Jun-17 21:29N 47°36' W 122°20'0 0.0
2018-Jun-17 13:05N 47°36' W 122°20'0 0.0
2018-Jun-17 12:59N 47°36' W 122°20'0 0.0
2018-Jun-17 12:29N 47°36' W 122°20'0 0.0
2018-Jun-17 11:59N 47°36' W 122°20'0 0.0
2018-Jun-17 11:29N 47°36' W 122°20'0 0.0
2018-Jun-17 10:59N 47°36' W 122°20'0 0.0
2018-Jun-17 10:26N 47°36' W 122°20'0 0.0
2018-Jun-17 09:59N 47°36' W 122°20'0 0.0
2018-Jun-17 09:29N 47°36' W 122°20'0 0.0
2018-Jun-17 08:59N 47°36' W 122°20'0 0.0
2018-Jun-17 08:29N 47°36' W 122°20'0 0.0
2018-Jun-17 07:59N 47°36' W 122°20'0 0.0
2018-Jun-17 07:29N 47°36' W 122°20'0 0.0
2018-Jun-17 06:59N 47°36' W 122°20'0 0.0
2018-Jun-17 06:29N 47°36' W 122°20'0 0.0
2018-Jun-17 01:47N 47°36' W 122°20'0 0.0
2018-Jun-16 22:59N 47°36' W 122°20'0 0.0
2018-Jun-16 22:29N 47°36' W 122°20'0 0.0
2018-Jun-16 21:59N 47°36' W 122°20'0 0.0
2018-Jun-16 21:29N 47°36' W 122°20'0 0.0
2018-Jun-16 20:59N 47°36' W 122°20'0 0.0
2018-Jun-16 20:20N 47°36' W 122°20'0 0.0
2018-Jun-16 17:41N 47°36' W 122°20'0 0.0
2018-Jun-16 17:29N 47°36' W 122°20'0 0.0
2018-Jun-16 16:59N 47°36' W 122°20'0 0.0
2018-Jun-16 15:20N 47°36' W 122°20'0 0.0
2018-Jun-16 14:59N 47°36' W 122°20'0 0.0
2018-Jun-16 14:29N 47°36' W 122°20'0 0.0
2018-Jun-16 13:59N 47°36' W 122°20'0 0.0
2018-Jun-16 13:29N 47°36' W 122°20'0 0.0
2018-Jun-16 12:53N 47°36' W 122°20'0 0.0
2018-Jun-16 12:29N 47°36' W 122°20'0 0.0
2018-Jun-16 11:59N 47°36' W 122°20'0 0.0
2018-Jun-16 11:29N 47°36' W 122°20'0 0.0
2018-Jun-16 10:59N 47°36' W 122°20'0 0.0
2018-Jun-16 10:29N 47°36' W 122°20'0 0.0
2018-Jun-16 09:59N 47°36' W 122°20'0 0.0
2018-Jun-16 09:29N 47°36' W 122°20'0 0.0
2018-Jun-16 08:59N 47°36' W 122°20'0 0.0
2018-Jun-16 08:29N 47°36' W 122°20'0 0.0
2018-Jun-16 07:59N 47°36' W 122°20'0 0.0
2018-Jun-16 07:29N 47°36' W 122°20'0 0.0
2018-Jun-16 06:59N 47°36' W 122°20'0 0.0
2018-Jun-16 06:29N 47°36' W 122°20'0 0.0
2018-Jun-16 03:23N 47°36' W 122°20'0 0.0
2018-Jun-16 02:34N 47°36' W 122°20'0 0.9
2018-Jun-16 02:21N 47°36' W 122°20'721.7
2018-Jun-16 02:01N 47°31' W 122°28'711.5
2018-Jun-16 01:22N 47°36' W 122°20'820.9
2018-Jun-16 01:00N 47°31' W 122°28'711.0
2018-Jun-16 00:20N 47°36' W 122°20'723.1
2018-Jun-16 00:00N 47°31' W 122°28'713.0
2018-Jun-15 23:26N 47°36' W 122°20'0 0.2
2018-Jun-15 22:29N 47°36' W 122°20'0 0.0
2018-Jun-15 21:59N 47°36' W 122°20'0 0.0
2018-Jun-15 21:29N 47°36' W 122°20'0 0.0
2018-Jun-15 20:59N 47°36' W 122°20'0 0.0
2018-Jun-15 20:29N 47°36' W 122°20'0 0.0
2018-Jun-15 19:56N 47°36' W 122°20'0 0.0
2018-Jun-15 19:29N 47°36' W 122°20'0 0.0
2018-Jun-15 18:59N 47°36' W 122°20'0 0.0
2018-Jun-15 18:29N 47°36' W 122°20'0 0.0
2018-Jun-15 17:59N 47°36' W 122°20'0 0.0
2018-Jun-15 17:29N 47°36' W 122°20'0 0.0
2018-Jun-15 16:59N 47°36' W 122°20'0 0.0
2018-Jun-15 16:29N 47°36' W 122°20'0 0.0
2018-Jun-15 16:00N 47°36' W 122°20'3 5.1
2018-Jun-15 15:30N 47°36' W 122°24'611.4
2018-Jun-15 15:01N 47°31' W 122°28'714.3
2018-Jun-15 14:30N 47°37' W 122°22'714.6
2018-Jun-15 14:01N 47°31' W 122°28'714.7
2018-Jun-15 13:30N 47°36' W 122°21'715.0
2018-Jun-15 13:01N 47°31' W 122°28'814.9
2018-Jun-15 12:30N 47°36' W 122°20'0 0.4
2018-Jun-15 12:00N 47°36' W 122°20'0 0.0
2018-Jun-15 11:28N 47°36' W 122°20'0 0.0
2018-Jun-15 10:58N 47°36' W 122°20'0 0.0
2018-Jun-15 10:28N 47°36' W 122°20'0 0.0
2018-Jun-15 09:58N 47°36' W 122°20'0 0.0
2018-Jun-15 09:28N 47°36' W 122°20'0 0.0
2018-Jun-15 08:58N 47°36' W 122°20'0 0.0
2018-Jun-15 08:28N 47°36' W 122°20'0 0.0
2018-Jun-15 07:58N 47°36' W 122°20'0 0.0
2018-Jun-15 07:28N 47°36' W 122°20'0 0.0
2018-Jun-15 06:58N 47°36' W 122°20'0 0.0
2018-Jun-15 06:25N 47°36' W 122°20'0 0.0
2018-Jun-15 05:58N 47°36' W 122°20'0 0.0
2018-Jun-15 05:25N 47°36' W 122°20'0 0.0
2018-Jun-15 04:58N 47°36' W 122°20'0 0.0
2018-Jun-15 04:25N 47°36' W 122°20'0 0.0
2018-Jun-15 03:58N 47°36' W 122°20'0 0.0
2018-Jun-15 03:28N 47°36' W 122°20'0 0.0
2018-Jun-15 02:58N 47°36' W 122°20'0 0.1
2018-Jun-15 02:30N 47°36' W 122°20'714.7
2018-Jun-15 02:00N 47°31' W 122°28'714.5
2018-Jun-15 01:30N 47°36' W 122°20'714.5
2018-Jun-15 01:00N 47°31' W 122°28'713.9
2018-Jun-15 00:30N 47°36' W 122°20'715.3
2018-Jun-15 00:00N 47°31' W 122°28'714.9
2018-Jun-14 23:30N 47°36' W 122°20'0 0.4
2018-Jun-14 22:58N 47°36' W 122°20'0 0.0
2018-Jun-14 22:28N 47°36' W 122°20'0 0.0
2018-Jun-14 21:55N 47°36' W 122°20'0 0.0
2018-Jun-14 21:28N 47°36' W 122°20'0 0.0
2018-Jun-14 20:58N 47°36' W 122°20'0 0.0
2018-Jun-14 20:28N 47°36' W 122°20'0 0.0
2018-Jun-14 19:58N 47°36' W 122°20'0 0.0
2018-Jun-14 19:28N 47°36' W 122°20'0 0.0
2018-Jun-14 18:58N 47°36' W 122°20'0 0.0
2018-Jun-14 18:28N 47°36' W 122°20'0 0.0
2018-Jun-14 17:58N 47°36' W 122°20'0 0.0
2018-Jun-14 17:28N 47°36' W 122°20'0 0.0
2018-Jun-14 16:58N 47°36' W 122°20'1 2.1
2018-Jun-14 16:30N 47°35' W 122°21'0 0.3
2018-Jun-14 16:01N 47°35' W 122°21'2 3.3
2018-Jun-14 15:31N 47°36' W 122°23'611.9
2018-Jun-14 15:01N 47°31' W 122°28'714.1
2018-Jun-14 14:30N 47°36' W 122°21'715.0
2018-Jun-14 14:01N 47°31' W 122°28'815.0
2018-Jun-14 13:30N 47°36' W 122°20'815.0
2018-Jun-14 13:01N 47°31' W 122°28'815.0
2018-Jun-14 12:30N 47°36' W 122°20'0 0.4
2018-Jun-14 12:00N 47°36' W 122°20'0 0.0
2018-Jun-14 11:27N 47°36' W 122°20'0 0.0
2018-Jun-14 11:00N 47°36' W 122°20'0 0.0
2018-Jun-14 10:30N 47°36' W 122°20'0 0.0
2018-Jun-14 10:00N 47°36' W 122°20'0 0.0
2018-Jun-14 09:30N 47°36' W 122°20'0 0.0
2018-Jun-14 09:00N 47°36' W 122°20'0 0.0
2018-Jun-14 08:30N 47°36' W 122°20'0 0.0
2018-Jun-14 08:00N 47°36' W 122°20'0 0.0
2018-Jun-14 07:30N 47°36' W 122°20'0 0.0
2018-Jun-14 07:00N 47°36' W 122°20'0 0.0
2018-Jun-14 06:30N 47°36' W 122°20'0 0.0
2018-Jun-14 06:00N 47°36' W 122°20'0 0.0
2018-Jun-14 05:30N 47°36' W 122°20'0 0.0
2018-Jun-14 05:00N 47°36' W 122°20'0 0.0
2018-Jun-14 04:30N 47°36' W 122°20'0 0.0
2018-Jun-14 03:57N 47°36' W 122°20'0 0.0
2018-Jun-14 03:30N 47°36' W 122°20'0 0.0
2018-Jun-14 03:00N 47°36' W 122°20'0 0.5
2018-Jun-14 02:29N 47°36' W 122°21'715.1
2018-Jun-14 02:01N 47°31' W 122°28'714.7
2018-Jun-14 01:30N 47°36' W 122°20'815.1
2018-Jun-14 01:00N 47°31' W 122°28'815.0
2018-Jun-14 00:31N 47°36' W 122°20'714.9
2018-Jun-14 00:01N 47°31' W 122°28'714.4
2018-Jun-13 23:29N 47°36' W 122°20'0 0.3
2018-Jun-13 22:52N 47°36' W 122°20'0 0.0
2018-Jun-13 22:25N 47°36' W 122°20'0 0.0
2018-Jun-13 21:58N 47°36' W 122°20'0 0.0
2018-Jun-13 21:28N 47°36' W 122°20'0 0.0
2018-Jun-13 20:58N 47°36' W 122°20'0 0.0
2018-Jun-13 20:28N 47°36' W 122°20'0 0.0
2018-Jun-13 19:58N 47°36' W 122°20'0 0.0
2018-Jun-13 19:28N 47°36' W 122°20'0 0.0
2018-Jun-13 18:59N 47°36' W 122°20'0 0.0
2018-Jun-13 18:28N 47°36' W 122°20'0 0.0
2018-Jun-13 17:58N 47°36' W 122°20'0 0.0
2018-Jun-13 17:28N 47°36' W 122°20'0 0.0
2018-Jun-13 16:58N 47°36' W 122°20'0 0.0
2018-Jun-13 16:28N 47°36' W 122°20'0 0.0
2018-Jun-13 15:58N 47°36' W 122°20'3 5.7
2018-Jun-13 15:30N 47°36' W 122°24'510.2
2018-Jun-13 15:01N 47°31' W 122°28'713.9
2018-Jun-13 14:31N 47°37' W 122°22'714.8
2018-Jun-13 14:01N 47°31' W 122°28'714.9
2018-Jun-13 13:31N 47°36' W 122°21'714.9
2018-Jun-13 13:01N 47°31' W 122°28'814.9
2018-Jun-13 12:30N 47°36' W 122°20'0 0.3
2018-Jun-13 11:55N 47°36' W 122°20'0 0.0
2018-Jun-13 11:25N 47°36' W 122°20'0 0.0
2018-Jun-13 10:58N 47°36' W 122°20'0 0.0
2018-Jun-13 10:25N 47°36' W 122°20'0 0.0
2018-Jun-13 09:58N 47°36' W 122°20'0 0.0
2018-Jun-13 09:28N 47°36' W 122°20'0 0.0
2018-Jun-13 08:58N 47°36' W 122°20'0 0.0
2018-Jun-13 08:28N 47°36' W 122°20'0 0.0
2018-Jun-13 07:58N 47°36' W 122°20'0 0.0
2018-Jun-13 07:25N 47°36' W 122°20'0 0.0
2018-Jun-13 06:58N 47°36' W 122°20'0 0.0
2018-Jun-13 06:28N 47°36' W 122°20'0 0.0
2018-Jun-13 05:55N 47°36' W 122°20'0 0.0
2018-Jun-13 05:28N 47°36' W 122°20'0 0.0
2018-Jun-13 04:58N 47°36' W 122°20'0 0.0
2018-Jun-13 04:28N 47°36' W 122°20'0 0.0
2018-Jun-13 03:58N 47°36' W 122°20'0 0.0
2018-Jun-13 03:25N 47°36' W 122°20'0 0.0
2018-Jun-13 02:58N 47°36' W 122°20'0 0.3
2018-Jun-13 02:31N 47°36' W 122°20'714.7
2018-Jun-13 02:00N 47°31' W 122°28'714.8
2018-Jun-13 01:30N 47°36' W 122°20'715.3
2018-Jun-13 01:00N 47°31' W 122°28'714.8
2018-Jun-13 00:30N 47°36' W 122°20'715.1
2018-Jun-13 00:00N 47°31' W 122°28'714.7
2018-Jun-12 23:30N 47°36' W 122°20'0 0.4
2018-Jun-12 23:00N 47°36' W 122°20'0 0.0
2018-Jun-12 22:29N 47°36' W 122°20'0 0.0
2018-Jun-12 21:59N 47°36' W 122°20'0 0.0
2018-Jun-12 21:29N 47°36' W 122°20'0 0.0
2018-Jun-12 20:59N 47°36' W 122°20'0 0.0
2018-Jun-12 20:29N 47°36' W 122°20'0 0.0
2018-Jun-12 19:59N 47°36' W 122°20'0 0.0
2018-Jun-12 19:29N 47°36' W 122°20'0 0.0
2018-Jun-12 18:59N 47°36' W 122°20'0 0.0
2018-Jun-12 18:14N 47°36' W 122°20'0 0.0
2018-Jun-12 17:56N 47°36' W 122°20'0 0.0
2018-Jun-12 17:29N 47°36' W 122°20'0 0.0
2018-Jun-12 16:56N 47°36' W 122°20'1 1.8
2018-Jun-12 16:30N 47°35' W 122°21'1 1.4
2018-Jun-12 16:00N 47°36' W 122°20'4 7.7
2018-Jun-12 15:30N 47°35' W 122°26'4 8.1
2018-Jun-12 15:01N 47°31' W 122°28'714.4
2018-Jun-12 14:30N 47°37' W 122°22'714.6
2018-Jun-12 14:01N 47°31' W 122°28'714.2
2018-Jun-12 13:30N 47°36' W 122°21'715.0
2018-Jun-12 13:00N 47°31' W 122°28'714.6
2018-Jun-12 12:30N 47°36' W 122°20'0 0.4
2018-Jun-12 12:00N 47°36' W 122°20'0 0.0
2018-Jun-12 11:16N 47°36' W 122°20'0 0.0
2018-Jun-12 10:58N 47°36' W 122°20'0 0.0
2018-Jun-12 10:25N 47°36' W 122°20'0 0.0
2018-Jun-12 09:55N 47°36' W 122°20'0 0.0
2018-Jun-12 09:25N 47°36' W 122°20'0 0.0
2018-Jun-12 08:55N 47°36' W 122°20'0 0.0
2018-Jun-12 08:28N 47°36' W 122°20'0 0.0
2018-Jun-12 07:46N 47°36' W 122°20'0 0.0
2018-Jun-12 07:25N 47°36' W 122°20'0 0.0
2018-Jun-12 06:58N 47°36' W 122°20'0 0.0
2018-Jun-12 06:28N 47°36' W 122°20'0 0.0
2018-Jun-12 05:58N 47°36' W 122°20'0 0.0
2018-Jun-12 05:28N 47°36' W 122°20'0 0.0
2018-Jun-12 04:55N 47°36' W 122°20'0 0.0
2018-Jun-12 04:28N 47°36' W 122°20'0 0.0
2018-Jun-12 03:58N 47°36' W 122°20'0 0.0
2018-Jun-12 03:31N 47°36' W 122°20'0 0.0
2018-Jun-12 02:58N 47°36' W 122°20'0 0.3
2018-Jun-12 02:30N 47°36' W 122°20'714.7
2018-Jun-12 02:01N 47°31' W 122°28'714.4
2018-Jun-12 01:30N 47°36' W 122°20'815.4
2018-Jun-12 01:00N 47°31' W 122°28'814.8
2018-Jun-12 00:30N 47°36' W 122°20'815.3
2018-Jun-12 00:00N 47°31' W 122°28'814.8
2018-Jun-11 23:30N 47°36' W 122°20'0 0.4
2018-Jun-11 22:58N 47°36' W 122°20'0 0.0
2018-Jun-11 22:30N 47°36' W 122°20'0 0.0
2018-Jun-11 21:54N 47°36' W 122°20'0 0.0
2018-Jun-11 21:29N 47°36' W 122°20'0 0.0
2018-Jun-11 20:59N 47°36' W 122°20'0 0.0
2018-Jun-11 20:30N 47°36' W 122°20'0 0.0
2018-Jun-11 20:00N 47°36' W 122°20'0 0.0
2018-Jun-11 19:30N 47°36' W 122°20'0 0.0
2018-Jun-11 19:00N 47°36' W 122°20'0 0.0
2018-Jun-11 18:30N 47°36' W 122°20'0 0.0
2018-Jun-11 17:59N 47°36' W 122°20'0 0.0
2018-Jun-11 17:30N 47°36' W 122°20'0 0.0
2018-Jun-11 17:00N 47°36' W 122°20'0 0.0
2018-Jun-11 16:30N 47°36' W 122°20'0 0.0
2018-Jun-11 16:00N 47°36' W 122°20'4 7.3
2018-Jun-11 15:30N 47°35' W 122°25'4 8.1
2018-Jun-11 15:01N 47°31' W 122°28'713.7
2018-Jun-11 14:31N 47°37' W 122°22'714.8
2018-Jun-11 14:01N 47°31' W 122°28'714.6
2018-Jun-11 13:30N 47°36' W 122°21'714.9
2018-Jun-11 13:00N 47°31' W 122°28'814.7
2018-Jun-11 12:30N 47°36' W 122°20'0 0.4
2018-Jun-11 12:00N 47°36' W 122°20'0 0.0
2018-Jun-11 11:29N 47°36' W 122°20'0 0.0
2018-Jun-11 10:56N 47°36' W 122°20'0 0.0
2018-Jun-11 10:29N 47°36' W 122°20'0 0.0
2018-Jun-11 09:59N 47°36' W 122°20'0 0.0
2018-Jun-11 09:29N 47°36' W 122°20'0 0.0
2018-Jun-11 08:59N 47°36' W 122°20'0 0.0
2018-Jun-11 08:26N 47°36' W 122°20'0 0.0
2018-Jun-11 07:59N 47°36' W 122°20'0 0.0
2018-Jun-11 07:29N 47°36' W 122°20'0 0.0
2018-Jun-11 06:59N 47°36' W 122°20'0 0.0
2018-Jun-11 06:26N 47°36' W 122°20'0 0.0
2018-Jun-11 05:59N 47°36' W 122°20'0 0.0
2018-Jun-11 05:29N 47°36' W 122°20'0 0.0
2018-Jun-11 04:59N 47°36' W 122°20'0 0.0
2018-Jun-11 04:29N 47°36' W 122°20'0 0.0
2018-Jun-11 03:59N 47°36' W 122°20'0 0.0
2018-Jun-11 03:29N 47°36' W 122°20'0 0.0
2018-Jun-11 02:59N 47°36' W 122°20'0 0.0
2018-Jun-11 02:29N 47°36' W 122°20'0 0.0
2018-Jun-11 01:59N 47°36' W 122°20'0 0.0
2018-Jun-11 01:29N 47°36' W 122°20'0 0.0
2018-Jun-11 00:59N 47°36' W 122°20'0 0.0
2018-Jun-11 00:29N 47°36' W 122°20'0 0.0
2018-Jun-10 23:59N 47°36' W 122°20'0 0.0
2018-Jun-10 23:29N 47°36' W 122°20'0 0.0
2018-Jun-10 22:59N 47°36' W 122°20'0 0.0
2018-Jun-10 22:29N 47°36' W 122°20'0 0.0
2018-Jun-10 21:59N 47°36' W 122°20'0 0.0
2018-Jun-10 21:26N 47°36' W 122°20'0 0.0
2018-Jun-10 20:59N 47°36' W 122°20'0 0.0
2018-Jun-10 20:26N 47°36' W 122°20'0 0.0
2018-Jun-10 19:59N 47°36' W 122°20'0 0.0
2018-Jun-10 19:29N 47°36' W 122°20'0 0.0
2018-Jun-10 18:59N 47°36' W 122°20'0 0.0
2018-Jun-10 18:29N 47°36' W 122°20'0 0.0
2018-Jun-10 17:59N 47°36' W 122°20'0 0.0
2018-Jun-10 17:29N 47°36' W 122°20'0 0.0
2018-Jun-10 16:59N 47°36' W 122°20'0 0.0
2018-Jun-10 16:26N 47°36' W 122°20'0 0.0
2018-Jun-10 15:59N 47°36' W 122°20'0 0.0
2018-Jun-10 15:29N 47°36' W 122°20'0 0.0
2018-Jun-10 14:59N 47°36' W 122°20'0 0.0
2018-Jun-10 13:56N 47°36' W 122°20'0 0.0
2018-Jun-10 13:23N 47°36' W 122°20'0 0.0
2018-Jun-10 12:59N 47°36' W 122°20'0 0.0
2018-Jun-10 12:29N 47°36' W 122°20'0 0.0
2018-Jun-10 11:59N 47°36' W 122°20'0 0.0
2018-Jun-10 11:29N 47°36' W 122°20'0 0.0
2018-Jun-10 10:59N 47°36' W 122°20'0 0.0
2018-Jun-10 10:29N 47°36' W 122°20'0 0.0
2018-Jun-10 09:59N 47°36' W 122°20'0 0.0
2018-Jun-10 09:29N 47°36' W 122°20'0 0.0
2018-Jun-10 08:59N 47°36' W 122°20'0 0.0
2018-Jun-10 08:29N 47°36' W 122°20'0 0.0
2018-Jun-10 07:59N 47°36' W 122°20'0 0.0
2018-Jun-10 07:26N 47°36' W 122°20'0 0.0
2018-Jun-10 06:59N 47°36' W 122°20'0 0.0
2018-Jun-10 06:29N 47°36' W 122°20'0 0.0
2018-Jun-10 05:56N 47°36' W 122°20'0 0.0
2018-Jun-10 05:29N 47°36' W 122°20'0 0.0
2018-Jun-10 04:53N 47°36' W 122°20'0 0.0
2018-Jun-10 04:29N 47°36' W 122°20'0 0.0
2018-Jun-10 03:59N 47°36' W 122°20'0 0.0
2018-Jun-10 03:29N 47°36' W 122°20'0 0.0
2018-Jun-10 02:56N 47°36' W 122°20'0 0.0
2018-Jun-10 02:29N 47°36' W 122°20'0 0.0
2018-Jun-10 01:59N 47°36' W 122°20'0 0.0
2018-Jun-10 01:29N 47°36' W 122°20'0 0.0
2018-Jun-10 00:59N 47°36' W 122°20'0 0.0
2018-Jun-10 00:26N 47°36' W 122°20'0 0.0
2018-Jun-09 23:58N 47°36' W 122°20'0 0.0
2018-Jun-09 23:29N 47°36' W 122°20'0 0.0
2018-Jun-09 22:59N 47°36' W 122°20'0 0.0
2018-Jun-09 22:28N 47°36' W 122°20'0 0.0
2018-Jun-09 21:59N 47°36' W 122°20'0 0.0
2018-Jun-09 21:29N 47°36' W 122°20'0 0.0
2018-Jun-09 20:59N 47°36' W 122°20'0 0.0
2018-Jun-09 20:28N 47°36' W 122°20'  
Track history (hours):
 
Tides and Currents Weather Stations Pressure Air Temp Water Temp Dewpoint Dewpoint Depression Visibility Wind Speed Wind Dir Waves Ship Positions

Sally Fox

Owner: King County Marine Division, Seattle, WA. More information available from US FCC via Universal Licensing System and Coast Guard Vessel Documentation Center.

Last reported at 2018-Jun-19 19:59 UTC. Time now 2018-Jun-19 20:11 UTC.
Position N 47°36' W 122°20'.

Length 31 m; draft 2 m.

Type: Passenger vessel. MMSI: 338790000.

Date/timePositionNaut miles runAvg speedWind from/ knotsBaromVisibWave heightAir tempDewpointWater temp
2018-Jun-19 19:59N 47°36' W 122°20'0 0.0
2018-Jun-19 19:26N 47°36' W 122°20'0 0.0
2018-Jun-19 18:50N 47°36' W 122°20'0 0.0
2018-Jun-19 18:29N 47°36' W 122°20'0 0.0
2018-Jun-19 17:59N 47°36' W 122°20'0 0.0
2018-Jun-19 17:29N 47°36' W 122°20'0 0.0
2018-Jun-19 16:59N 47°36' W 122°20'0 0.0
2018-Jun-19 16:26N 47°36' W 122°20'0 0.0
2018-Jun-19 16:00N 47°36' W 122°20'3 5.4
2018-Jun-19 15:30N 47°36' W 122°24'4 7.2
2018-Jun-19 15:00N 47°33' W 122°27'510.4
2018-Jun-19 14:31N 47°37' W 122°22'714.6
2018-Jun-19 14:00N 47°31' W 122°28'714.9
2018-Jun-19 13:30N 47°36' W 122°21'714.9
2018-Jun-19 13:00N 47°31' W 122°28'815.0
2018-Jun-19 12:30N 47°36' W 122°20'0 0.4
2018-Jun-19 12:00N 47°36' W 122°20'0 0.0
2018-Jun-19 11:30N 47°36' W 122°20'0 0.0
2018-Jun-19 11:00N 47°36' W 122°20'0 0.0
2018-Jun-19 10:30N 47°36' W 122°20'0 0.0
2018-Jun-19 10:00N 47°36' W 122°20'0 0.0
2018-Jun-19 09:30N 47°36' W 122°20'0 0.0
2018-Jun-19 09:00N 47°36' W 122°20'0 0.0
2018-Jun-19 08:30N 47°36' W 122°20'0 0.0
2018-Jun-19 08:00N 47°36' W 122°20'0 0.0
2018-Jun-19 07:30N 47°36' W 122°20'0 0.0
2018-Jun-19 07:00N 47°36' W 122°20'0 0.0
2018-Jun-19 06:27N 47°36' W 122°20'0 0.0
2018-Jun-19 06:00N 47°36' W 122°20'0 0.0
2018-Jun-19 05:18N 47°36' W 122°20'0 0.0
2018-Jun-19 02:33N 47°36' W 122°20'0 2.5
2018-Jun-19 02:30N 47°36' W 122°20'714.7
2018-Jun-19 02:00N 47°31' W 122°28'714.9
2018-Jun-19 01:31N 47°36' W 122°20'714.9
2018-Jun-19 01:01N 47°31' W 122°28'713.0
2018-Jun-19 00:26N 47°36' W 122°20'717.3
2018-Jun-19 00:01N 47°31' W 122°28'711.4
2018-Jun-18 23:22N 47°36' W 122°20'0 0.6
2018-Jun-18 23:00N 47°36' W 122°20'0 0.0
2018-Jun-18 22:26N 47°36' W 122°20'0 0.0
2018-Jun-18 21:56N 47°36' W 122°20'0 0.0
2018-Jun-18 21:26N 47°36' W 122°20'0 0.0
2018-Jun-18 20:56N 47°36' W 122°20'0 0.0
2018-Jun-18 20:02N 47°36' W 122°20'0 0.0
2018-Jun-18 19:53N 47°36' W 122°20'0 0.0
2018-Jun-18 19:26N 47°36' W 122°20'0 0.0
2018-Jun-18 17:41N 47°36' W 122°20'0 0.0
2018-Jun-18 17:26N 47°36' W 122°20'0 0.0
2018-Jun-18 16:48N 47°36' W 122°20'1 3.4
2018-Jun-18 16:30N 47°35' W 122°21'0 0.6
2018-Jun-18 16:00N 47°36' W 122°21'2 5.0
2018-Jun-18 15:30N 47°35' W 122°25'510.2
2018-Jun-18 15:01N 47°31' W 122°28'714.6
2018-Jun-18 14:30N 47°37' W 122°22'714.9
2018-Jun-18 14:01N 47°31' W 122°28'714.9
2018-Jun-18 13:30N 47°36' W 122°20'715.0
2018-Jun-18 13:01N 47°31' W 122°28'814.9
2018-Jun-18 12:30N 47°36' W 122°20'0 0.4
2018-Jun-18 12:01N 47°36' W 122°20'0 0.0
2018-Jun-18 11:23N 47°36' W 122°20'0 0.0
2018-Jun-18 10:59N 47°36' W 122°20'0 0.0
2018-Jun-18 10:29N 47°36' W 122°20'0 0.0
2018-Jun-18 09:59N 47°36' W 122°20'0 0.0
2018-Jun-18 09:29N 47°36' W 122°20'0 0.0
2018-Jun-18 08:59N 47°36' W 122°20'0 0.0
2018-Jun-18 08:29N 47°36' W 122°20'0 0.0
2018-Jun-18 07:59N 47°36' W 122°20'0 0.0
2018-Jun-18 07:29N 47°36' W 122°20'0 0.0
2018-Jun-18 06:59N 47°36' W 122°20'0 0.0
2018-Jun-18 06:29N 47°36' W 122°20'0 0.0
2018-Jun-18 05:59N 47°36' W 122°20'0 0.0
2018-Jun-18 05:29N 47°36' W 122°20'0 0.0
2018-Jun-18 04:53N 47°36' W 122°20'0 0.0
2018-Jun-18 04:23N 47°36' W 122°20'0 0.0
2018-Jun-18 03:59N 47°36' W 122°20'0 0.0
2018-Jun-18 03:29N 47°36' W 122°20'0 0.0
2018-Jun-18 02:59N 47°36' W 122°20'0 0.0
2018-Jun-18 00:20N 47°36' W 122°20'0 0.0
2018-Jun-17 23:50N 47°36' W 122°20'0 0.0
2018-Jun-17 23:11N 47°36' W 122°20'0 0.0
2018-Jun-17 22:59N 47°36' W 122°20'0 0.0
2018-Jun-17 22:11N 47°36' W 122°20'0 0.0
2018-Jun-17 21:59N 47°36' W 122°20'0 0.0
2018-Jun-17 21:29N 47°36' W 122°20'0 0.0
2018-Jun-17 13:05N 47°36' W 122°20'0 0.0
2018-Jun-17 12:59N 47°36' W 122°20'0 0.0
2018-Jun-17 12:29N 47°36' W 122°20'0 0.0
2018-Jun-17 11:59N 47°36' W 122°20'0 0.0
2018-Jun-17 11:29N 47°36' W 122°20'0 0.0
2018-Jun-17 10:59N 47°36' W 122°20'0 0.0
2018-Jun-17 10:26N 47°36' W 122°20'0 0.0
2018-Jun-17 09:59N 47°36' W 122°20'0 0.0
2018-Jun-17 09:29N 47°36' W 122°20'0 0.0
2018-Jun-17 08:59N 47°36' W 122°20'0 0.0
2018-Jun-17 08:29N 47°36' W 122°20'0 0.0
2018-Jun-17 07:59N 47°36' W 122°20'0 0.0
2018-Jun-17 07:29N 47°36' W 122°20'0 0.0
2018-Jun-17 06:59N 47°36' W 122°20'0 0.0
2018-Jun-17 06:29N 47°36' W 122°20'0 0.0
2018-Jun-17 01:47N 47°36' W 122°20'0 0.0
2018-Jun-16 22:59N 47°36' W 122°20'0 0.0
2018-Jun-16 22:29N 47°36' W 122°20'0 0.0
2018-Jun-16 21:59N 47°36' W 122°20'0 0.0
2018-Jun-16 21:29N 47°36' W 122°20'0 0.0
2018-Jun-16 20:59N 47°36' W 122°20'0 0.0
2018-Jun-16 20:20N 47°36' W 122°20'0 0.0
2018-Jun-16 17:41N 47°36' W 122°20'0 0.0
2018-Jun-16 17:29N 47°36' W 122°20'0 0.0
2018-Jun-16 16:59N 47°36' W 122°20'0 0.0
2018-Jun-16 15:20N 47°36' W 122°20'0 0.0
2018-Jun-16 14:59N 47°36' W 122°20'0 0.0
2018-Jun-16 14:29N 47°36' W 122°20'0 0.0
2018-Jun-16 13:59N 47°36' W 122°20'0 0.0
2018-Jun-16 13:29N 47°36' W 122°20'0 0.0
2018-Jun-16 12:53N 47°36' W 122°20'0 0.0
2018-Jun-16 12:29N 47°36' W 122°20'0 0.0
2018-Jun-16 11:59N 47°36' W 122°20'0 0.0
2018-Jun-16 11:29N 47°36' W 122°20'0 0.0
2018-Jun-16 10:59N 47°36' W 122°20'0 0.0
2018-Jun-16 10:29N 47°36' W 122°20'0 0.0
2018-Jun-16 09:59N 47°36' W 122°20'0 0.0
2018-Jun-16 09:29N 47°36' W 122°20'0 0.0
2018-Jun-16 08:59N 47°36' W 122°20'0 0.0
2018-Jun-16 08:29N 47°36' W 122°20'0 0.0
2018-Jun-16 07:59N 47°36' W 122°20'0 0.0
2018-Jun-16 07:29N 47°36' W 122°20'0 0.0
2018-Jun-16 06:59N 47°36' W 122°20'0 0.0
2018-Jun-16 06:29N 47°36' W 122°20'0 0.0
2018-Jun-16 03:23N 47°36' W 122°20'0 0.0
2018-Jun-16 02:34N 47°36' W 122°20'0 0.9
2018-Jun-16 02:21N 47°36' W 122°20'721.7
2018-Jun-16 02:01N 47°31' W 122°28'711.5
2018-Jun-16 01:22N 47°36' W 122°20'820.9
2018-Jun-16 01:00N 47°31' W 122°28'711.0
2018-Jun-16 00:20N 47°36' W 122°20'723.1
2018-Jun-16 00:00N 47°31' W 122°28'713.0
2018-Jun-15 23:26N 47°36' W 122°20'0 0.2
2018-Jun-15 22:29N 47°36' W 122°20'0 0.0
2018-Jun-15 21:59N 47°36' W 122°20'0 0.0
2018-Jun-15 21:29N 47°36' W 122°20'0 0.0
2018-Jun-15 20:59N 47°36' W 122°20'0 0.0
2018-Jun-15 20:29N 47°36' W 122°20'0 0.0
2018-Jun-15 19:56N 47°36' W 122°20'0 0.0
2018-Jun-15 19:29N 47°36' W 122°20'0 0.0
2018-Jun-15 18:59N 47°36' W 122°20'0 0.0
2018-Jun-15 18:29N 47°36' W 122°20'0 0.0
2018-Jun-15 17:59N 47°36' W 122°20'0 0.0
2018-Jun-15 17:29N 47°36' W 122°20'0 0.0
2018-Jun-15 16:59N 47°36' W 122°20'0 0.0
2018-Jun-15 16:29N 47°36' W 122°20'0 0.0
2018-Jun-15 16:00N 47°36' W 122°20'3 5.1
2018-Jun-15 15:30N 47°36' W 122°24'611.4
2018-Jun-15 15:01N 47°31' W 122°28'714.3
2018-Jun-15 14:30N 47°37' W 122°22'714.6
2018-Jun-15 14:01N 47°31' W 122°28'714.7
2018-Jun-15 13:30N 47°36' W 122°21'715.0
2018-Jun-15 13:01N 47°31' W 122°28'814.9
2018-Jun-15 12:30N 47°36' W 122°20'0 0.4
2018-Jun-15 12:00N 47°36' W 122°20'0 0.0
2018-Jun-15 11:28N 47°36' W 122°20'0 0.0
2018-Jun-15 10:58N 47°36' W 122°20'0 0.0
2018-Jun-15 10:28N 47°36' W 122°20'0 0.0
2018-Jun-15 09:58N 47°36' W 122°20'0 0.0
2018-Jun-15 09:28N 47°36' W 122°20'0 0.0
2018-Jun-15 08:58N 47°36' W 122°20'0 0.0
2018-Jun-15 08:28N 47°36' W 122°20'0 0.0
2018-Jun-15 07:58N 47°36' W 122°20'0 0.0
2018-Jun-15 07:28N 47°36' W 122°20'0 0.0
2018-Jun-15 06:58N 47°36' W 122°20'0 0.0
2018-Jun-15 06:25N 47°36' W 122°20'0 0.0
2018-Jun-15 05:58N 47°36' W 122°20'0 0.0
2018-Jun-15 05:25N 47°36' W 122°20'0 0.0
2018-Jun-15 04:58N 47°36' W 122°20'0 0.0
2018-Jun-15 04:25N 47°36' W 122°20'0 0.0
2018-Jun-15 03:58N 47°36' W 122°20'0 0.0
2018-Jun-15 03:28N 47°36' W 122°20'0 0.0
2018-Jun-15 02:58N 47°36' W 122°20'0 0.1
2018-Jun-15 02:30N 47°36' W 122°20'714.7
2018-Jun-15 02:00N 47°31' W 122°28'714.5
2018-Jun-15 01:30N 47°36' W 122°20'714.5
2018-Jun-15 01:00N 47°31' W 122°28'713.9
2018-Jun-15 00:30N 47°36' W 122°20'715.3
2018-Jun-15 00:00N 47°31' W 122°28'714.9
2018-Jun-14 23:30N 47°36' W 122°20'0 0.4
2018-Jun-14 22:58N 47°36' W 122°20'0 0.0
2018-Jun-14 22:28N 47°36' W 122°20'0 0.0
2018-Jun-14 21:55N 47°36' W 122°20'0 0.0
2018-Jun-14 21:28N 47°36' W 122°20'0 0.0
2018-Jun-14 20:58N 47°36' W 122°20'0 0.0
2018-Jun-14 20:28N 47°36' W 122°20'0 0.0
2018-Jun-14 19:58N 47°36' W 122°20'0 0.0
2018-Jun-14 19:28N 47°36' W 122°20'0 0.0
2018-Jun-14 18:58N 47°36' W 122°20'0 0.0
2018-Jun-14 18:28N 47°36' W 122°20'0 0.0
2018-Jun-14 17:58N 47°36' W 122°20'0 0.0
2018-Jun-14 17:28N 47°36' W 122°20'0 0.0
2018-Jun-14 16:58N 47°36' W 122°20'1 2.1
2018-Jun-14 16:30N 47°35' W 122°21'0 0.3
2018-Jun-14 16:01N 47°35' W 122°21'2 3.3
2018-Jun-14 15:31N 47°36' W 122°23'611.9
2018-Jun-14 15:01N 47°31' W 122°28'714.1
2018-Jun-14 14:30N 47°36' W 122°21'715.0
2018-Jun-14 14:01N 47°31' W 122°28'815.0
2018-Jun-14 13:30N 47°36' W 122°20'815.0
2018-Jun-14 13:01N 47°31' W 122°28'815.0
2018-Jun-14 12:30N 47°36' W 122°20'0 0.4
2018-Jun-14 12:00N 47°36' W 122°20'0 0.0
2018-Jun-14 11:27N 47°36' W 122°20'0 0.0
2018-Jun-14 11:00N 47°36' W 122°20'0 0.0
2018-Jun-14 10:30N 47°36' W 122°20'0 0.0
2018-Jun-14 10:00N 47°36' W 122°20'0 0.0
2018-Jun-14 09:30N 47°36' W 122°20'0 0.0
2018-Jun-14 09:00N 47°36' W 122°20'0 0.0
2018-Jun-14 08:30N 47°36' W 122°20'0 0.0
2018-Jun-14 08:00N 47°36' W 122°20'0 0.0
2018-Jun-14 07:30N 47°36' W 122°20'0 0.0
2018-Jun-14 07:00N 47°36' W 122°20'0 0.0
2018-Jun-14 06:30N 47°36' W 122°20'0 0.0
2018-Jun-14 06:00N 47°36' W 122°20'0 0.0
2018-Jun-14 05:30N 47°36' W 122°20'0 0.0
2018-Jun-14 05:00N 47°36' W 122°20'0 0.0
2018-Jun-14 04:30N 47°36' W 122°20'0 0.0
2018-Jun-14 03:57N 47°36' W 122°20'0 0.0
2018-Jun-14 03:30N 47°36' W 122°20'0 0.0
2018-Jun-14 03:00N 47°36' W 122°20'0 0.5
2018-Jun-14 02:29N 47°36' W 122°21'715.1
2018-Jun-14 02:01N 47°31' W 122°28'714.7
2018-Jun-14 01:30N 47°36' W 122°20'815.1
2018-Jun-14 01:00N 47°31' W 122°28'815.0
2018-Jun-14 00:31N 47°36' W 122°20'714.9
2018-Jun-14 00:01N 47°31' W 122°28'714.4
2018-Jun-13 23:29N 47°36' W 122°20'0 0.3
2018-Jun-13 22:52N 47°36' W 122°20'0 0.0
2018-Jun-13 22:25N 47°36' W 122°20'0 0.0
2018-Jun-13 21:58N 47°36' W 122°20'0 0.0
2018-Jun-13 21:28N 47°36' W 122°20'0 0.0
2018-Jun-13 20:58N 47°36' W 122°20'0 0.0
2018-Jun-13 20:28N 47°36' W 122°20'0 0.0
2018-Jun-13 19:58N 47°36' W 122°20'0 0.0
2018-Jun-13 19:28N 47°36' W 122°20'0 0.0
2018-Jun-13 18:59N 47°36' W 122°20'0 0.0
2018-Jun-13 18:28N 47°36' W 122°20'0 0.0
2018-Jun-13 17:58N 47°36' W 122°20'0 0.0
2018-Jun-13 17:28N 47°36' W 122°20'0 0.0
2018-Jun-13 16:58N 47°36' W 122°20'0 0.0
2018-Jun-13 16:28N 47°36' W 122°20'0 0.0
2018-Jun-13 15:58N 47°36' W 122°20'3 5.7
2018-Jun-13 15:30N 47°36' W 122°24'510.2
2018-Jun-13 15:01N 47°31' W 122°28'713.9
2018-Jun-13 14:31N 47°37' W 122°22'714.8
2018-Jun-13 14:01N 47°31' W 122°28'714.9
2018-Jun-13 13:31N 47°36' W 122°21'714.9
2018-Jun-13 13:01N 47°31' W 122°28'814.9
2018-Jun-13 12:30N 47°36' W 122°20'0 0.3
2018-Jun-13 11:55N 47°36' W 122°20'0 0.0
2018-Jun-13 11:25N 47°36' W 122°20'0 0.0
2018-Jun-13 10:58N 47°36' W 122°20'0 0.0
2018-Jun-13 10:25N 47°36' W 122°20'0 0.0
2018-Jun-13 09:58N 47°36' W 122°20'0 0.0
2018-Jun-13 09:28N 47°36' W 122°20'0 0.0
2018-Jun-13 08:58N 47°36' W 122°20'0 0.0
2018-Jun-13 08:28N 47°36' W 122°20'0 0.0
2018-Jun-13 07:58N 47°36' W 122°20'0 0.0
2018-Jun-13 07:25N 47°36' W 122°20'0 0.0
2018-Jun-13 06:58N 47°36' W 122°20'0 0.0
2018-Jun-13 06:28N 47°36' W 122°20'0 0.0
2018-Jun-13 05:55N 47°36' W 122°20'0 0.0
2018-Jun-13 05:28N 47°36' W 122°20'0 0.0
2018-Jun-13 04:58N 47°36' W 122°20'0 0.0
2018-Jun-13 04:28N 47°36' W 122°20'0 0.0
2018-Jun-13 03:58N 47°36' W 122°20'0 0.0
2018-Jun-13 03:25N 47°36' W 122°20'0 0.0
2018-Jun-13 02:58N 47°36' W 122°20'0 0.3
2018-Jun-13 02:31N 47°36' W 122°20'714.7
2018-Jun-13 02:00N 47°31' W 122°28'714.8
2018-Jun-13 01:30N 47°36' W 122°20'715.3
2018-Jun-13 01:00N 47°31' W 122°28'714.8
2018-Jun-13 00:30N 47°36' W 122°20'715.1
2018-Jun-13 00:00N 47°31' W 122°28'714.7
2018-Jun-12 23:30N 47°36' W 122°20'0 0.4
2018-Jun-12 23:00N 47°36' W 122°20'0 0.0
2018-Jun-12 22:29N 47°36' W 122°20'0 0.0
2018-Jun-12 21:59N 47°36' W 122°20'0 0.0
2018-Jun-12 21:29N 47°36' W 122°20'0 0.0
2018-Jun-12 20:59N 47°36' W 122°20'0 0.0
2018-Jun-12 20:29N 47°36' W 122°20'0 0.0
2018-Jun-12 19:59N 47°36' W 122°20'0 0.0
2018-Jun-12 19:29N 47°36' W 122°20'0 0.0
2018-Jun-12 18:59N 47°36' W 122°20'0 0.0
2018-Jun-12 18:14N 47°36' W 122°20'0 0.0
2018-Jun-12 17:56N 47°36' W 122°20'0 0.0
2018-Jun-12 17:29N 47°36' W 122°20'0 0.0
2018-Jun-12 16:56N 47°36' W 122°20'1 1.8
2018-Jun-12 16:30N 47°35' W 122°21'1 1.4
2018-Jun-12 16:00N 47°36' W 122°20'4 7.7
2018-Jun-12 15:30N 47°35' W 122°26'4 8.1
2018-Jun-12 15:01N 47°31' W 122°28'714.4
2018-Jun-12 14:30N 47°37' W 122°22'714.6
2018-Jun-12 14:01N 47°31' W 122°28'714.2
2018-Jun-12 13:30N 47°36' W 122°21'715.0
2018-Jun-12 13:00N 47°31' W 122°28'714.6
2018-Jun-12 12:30N 47°36' W 122°20'0 0.4
2018-Jun-12 12:00N 47°36' W 122°20'0 0.0
2018-Jun-12 11:16N 47°36' W 122°20'0 0.0
2018-Jun-12 10:58N 47°36' W 122°20'0 0.0
2018-Jun-12 10:25N 47°36' W 122°20'0 0.0
2018-Jun-12 09:55N 47°36' W 122°20'0 0.0
2018-Jun-12 09:25N 47°36' W 122°20'0 0.0
2018-Jun-12 08:55N 47°36' W 122°20'0 0.0
2018-Jun-12 08:28N 47°36' W 122°20'0 0.0
2018-Jun-12 07:46N 47°36' W 122°20'0 0.0
2018-Jun-12 07:25N 47°36' W 122°20'0 0.0
2018-Jun-12 06:58N 47°36' W 122°20'0 0.0
2018-Jun-12 06:28N 47°36' W 122°20'0 0.0
2018-Jun-12 05:58N 47°36' W 122°20'0 0.0
2018-Jun-12 05:28N 47°36' W 122°20'0 0.0
2018-Jun-12 04:55N 47°36' W 122°20'0 0.0
2018-Jun-12 04:28N 47°36' W 122°20'0 0.0
2018-Jun-12 03:58N 47°36' W 122°20'0 0.0
2018-Jun-12 03:31N 47°36' W 122°20'0 0.0
2018-Jun-12 02:58N 47°36' W 122°20'0 0.3
2018-Jun-12 02:30N 47°36' W 122°20'714.7
2018-Jun-12 02:01N 47°31' W 122°28'714.4
2018-Jun-12 01:30N 47°36' W 122°20'815.4
2018-Jun-12 01:00N 47°31' W 122°28'814.8
2018-Jun-12 00:30N 47°36' W 122°20'815.3
2018-Jun-12 00:00N 47°31' W 122°28'814.8
2018-Jun-11 23:30N 47°36' W 122°20'0 0.4
2018-Jun-11 22:58N 47°36' W 122°20'0 0.0
2018-Jun-11 22:30N 47°36' W 122°20'0 0.0
2018-Jun-11 21:54N 47°36' W 122°20'0 0.0
2018-Jun-11 21:29N 47°36' W 122°20'0 0.0
2018-Jun-11 20:59N 47°36' W 122°20'0 0.0
2018-Jun-11 20:30N 47°36' W 122°20'0 0.0
2018-Jun-11 20:00N 47°36' W 122°20'0 0.0
2018-Jun-11 19:30N 47°36' W 122°20'0 0.0
2018-Jun-11 19:00N 47°36' W 122°20'0 0.0
2018-Jun-11 18:30N 47°36' W 122°20'0 0.0
2018-Jun-11 17:59N 47°36' W 122°20'0 0.0
2018-Jun-11 17:30N 47°36' W 122°20'0 0.0
2018-Jun-11 17:00N 47°36' W 122°20'0 0.0
2018-Jun-11 16:30N 47°36' W 122°20'0 0.0
2018-Jun-11 16:00N 47°36' W 122°20'4 7.3
2018-Jun-11 15:30N 47°35' W 122°25'4 8.1
2018-Jun-11 15:01N 47°31' W 122°28'713.7
2018-Jun-11 14:31N 47°37' W 122°22'714.8
2018-Jun-11 14:01N 47°31' W 122°28'714.6
2018-Jun-11 13:30N 47°36' W 122°21'714.9
2018-Jun-11 13:00N 47°31' W 122°28'814.7
2018-Jun-11 12:30N 47°36' W 122°20'0 0.4
2018-Jun-11 12:00N 47°36' W 122°20'0 0.0
2018-Jun-11 11:29N 47°36' W 122°20'0 0.0
2018-Jun-11 10:56N 47°36' W 122°20'0 0.0
2018-Jun-11 10:29N 47°36' W 122°20'0 0.0
2018-Jun-11 09:59N 47°36' W 122°20'0 0.0
2018-Jun-11 09:29N 47°36' W 122°20'0 0.0
2018-Jun-11 08:59N 47°36' W 122°20'0 0.0
2018-Jun-11 08:26N 47°36' W 122°20'0 0.0
2018-Jun-11 07:59N 47°36' W 122°20'0 0.0
2018-Jun-11 07:29N 47°36' W 122°20'0 0.0
2018-Jun-11 06:59N 47°36' W 122°20'0 0.0
2018-Jun-11 06:26N 47°36' W 122°20'0 0.0
2018-Jun-11 05:59N 47°36' W 122°20'0 0.0
2018-Jun-11 05:29N 47°36' W 122°20'0 0.0
2018-Jun-11 04:59N 47°36' W 122°20'0 0.0
2018-Jun-11 04:29N 47°36' W 122°20'0 0.0
2018-Jun-11 03:59N 47°36' W 122°20'0 0.0
2018-Jun-11 03:29N 47°36' W 122°20'0 0.0
2018-Jun-11 02:59N 47°36' W 122°20'0 0.0
2018-Jun-11 02:29N 47°36' W 122°20'0 0.0
2018-Jun-11 01:59N 47°36' W 122°20'0 0.0
2018-Jun-11 01:29N 47°36' W 122°20'0 0.0
2018-Jun-11 00:59N 47°36' W 122°20'0 0.0
2018-Jun-11 00:29N 47°36' W 122°20'0 0.0
2018-Jun-10 23:59N 47°36' W 122°20'0 0.0
2018-Jun-10 23:29N 47°36' W 122°20'0 0.0
2018-Jun-10 22:59N 47°36' W 122°20'0 0.0
2018-Jun-10 22:29N 47°36' W 122°20'0 0.0
2018-Jun-10 21:59N 47°36' W 122°20'0 0.0
2018-Jun-10 21:26N 47°36' W 122°20'0 0.0
2018-Jun-10 20:59N 47°36' W 122°20'0 0.0
2018-Jun-10 20:26N 47°36' W 122°20'0 0.0
2018-Jun-10 19:59N 47°36' W 122°20'0 0.0
2018-Jun-10 19:29N 47°36' W 122°20'0 0.0
2018-Jun-10 18:59N 47°36' W 122°20'0 0.0
2018-Jun-10 18:29N 47°36' W 122°20'0 0.0
2018-Jun-10 17:59N 47°36' W 122°20'0 0.0
2018-Jun-10 17:29N 47°36' W 122°20'0 0.0
2018-Jun-10 16:59N 47°36' W 122°20'0 0.0
2018-Jun-10 16:26N 47°36' W 122°20'0 0.0
2018-Jun-10 15:59N 47°36' W 122°20'0 0.0
2018-Jun-10 15:29N 47°36' W 122°20'0 0.0
2018-Jun-10 14:59N 47°36' W 122°20'0 0.0
2018-Jun-10 13:56N 47°36' W 122°20'0 0.0
2018-Jun-10 13:23N 47°36' W 122°20'0 0.0
2018-Jun-10 12:59N 47°36' W 122°20'0 0.0
2018-Jun-10 12:29N 47°36' W 122°20'0 0.0
2018-Jun-10 11:59N 47°36' W 122°20'0 0.0
2018-Jun-10 11:29N 47°36' W 122°20'0 0.0
2018-Jun-10 10:59N 47°36' W 122°20'0 0.0
2018-Jun-10 10:29N 47°36' W 122°20'0 0.0
2018-Jun-10 09:59N 47°36' W 122°20'0 0.0
2018-Jun-10 09:29N 47°36' W 122°20'0 0.0
2018-Jun-10 08:59N 47°36' W 122°20'0 0.0
2018-Jun-10 08:29N 47°36' W 122°20'0 0.0
2018-Jun-10 07:59N 47°36' W 122°20'0 0.0
2018-Jun-10 07:26N 47°36' W 122°20'0 0.0
2018-Jun-10 06:59N 47°36' W 122°20'0 0.0
2018-Jun-10 06:29N 47°36' W 122°20'0 0.0
2018-Jun-10 05:56N 47°36' W 122°20'0 0.0
2018-Jun-10 05:29N 47°36' W 122°20'0 0.0
2018-Jun-10 04:53N 47°36' W 122°20'0 0.0
2018-Jun-10 04:29N 47°36' W 122°20'0 0.0
2018-Jun-10 03:59N 47°36' W 122°20'0 0.0
2018-Jun-10 03:29N 47°36' W 122°20'0 0.0
2018-Jun-10 02:56N 47°36' W 122°20'0 0.0
2018-Jun-10 02:29N 47°36' W 122°20'0 0.0
2018-Jun-10 01:59N 47°36' W 122°20'0 0.0
2018-Jun-10 01:29N 47°36' W 122°20'0 0.0
2018-Jun-10 00:59N 47°36' W 122°20'0 0.0
2018-Jun-10 00:26N 47°36' W 122°20'0 0.0
2018-Jun-09 23:58N 47°36' W 122°20'0 0.0
2018-Jun-09 23:29N 47°36' W 122°20'0 0.0
2018-Jun-09 22:59N 47°36' W 122°20'0 0.0
2018-Jun-09 22:28N 47°36' W 122°20'0 0.0
2018-Jun-09 21:59N 47°36' W 122°20'0 0.0
2018-Jun-09 21:29N 47°36' W 122°20'0 0.0
2018-Jun-09 20:59N 47°36' W 122°20'0 0.0
2018-Jun-09 20:28N 47°36' W 122°20'  

Dump ship's entire track history